Time;durP1;ratioP1;P1;durP2;ratioP2;P2;SDS_P1;SDS_P2;PMS_P1;PMS_P2;Temp;Humidity;BMP_temperature;BMP_pressure;BME280_temperature;BME280_humidity;BME280_pressure;Samples;Min_cycle;Max_cycle;Signal;HPM_P1;HPM_P2
2022/09/10 00:01:23;;;;;;;11.13;3.17;;;26.40;99.90;;;;;;5110400;27;20175;-59
2022/09/10 00:03:50;;;;;;;10.45;2.85;;;26.30;99.90;;;;;;5108014;28;20214;-59
2022/09/10 00:06:17;;;;;;;17.02;3.33;;;26.30;99.90;;;;;;5091953;28;20094;-59
2022/09/10 00:08:45;;;;;;;10.00;3.30;;;26.30;99.90;;;;;;5092807;27;20542;-59
2022/09/10 00:11:13;;;;;;;8.77;2.90;;;26.40;99.90;;;;;;5109770;28;20090;-59
2022/09/10 00:13:41;;;;;;;12.35;2.55;;;26.40;99.90;;;;;;5109257;28;20549;-59
2022/09/10 00:16:11;;;;;;;6.72;1.83;;;26.40;99.90;;;;;;5108792;28;20080;-60
2022/09/10 00:18:39;;;;;;;10.82;2.13;;;26.40;99.90;;;;;;5108827;28;20105;-59
2022/09/10 00:21:09;;;;;;;12.52;2.65;;;26.40;99.90;;;;;;5108248;28;20210;-63
2022/09/10 00:23:36;;;;;;;14.25;3.78;;;26.40;99.90;;;;;;5109970;27;20085;-60
2022/09/10 00:26:15;;;;;;;15.60;4.60;;;26.40;99.90;;;;;;5109592;28;20069;-61
2022/09/10 00:28:42;;;;;;;13.35;4.07;;;26.40;99.90;;;;;;5104249;28;20464;-61
2022/09/10 00:31:08;;;;;;;15.07;3.92;;;26.30;99.90;;;;;;5108196;28;20069;-59
2022/09/10 00:33:34;;;;;;;14.15;3.67;;;26.40;99.90;;;;;;5107935;28;20568;-60
2022/09/10 00:36:03;;;;;;;18.02;4.70;;;26.30;99.90;;;;;;5106430;28;20189;-60
2022/09/10 00:38:30;;;;;;;14.77;4.07;;;26.20;99.90;;;;;;5107423;28;20098;-60
2022/09/10 00:41:03;;;;;;;14.02;4.35;;;26.10;99.90;;;;;;5110130;27;20059;-60
2022/09/10 00:43:47;;;;;;;16.15;3.90;;;26.10;99.90;;;;;;5124197;27;20067;-59
2022/09/10 00:46:17;;;;;;;13.57;3.97;;;26.10;99.90;;;;;;5107030;28;20096;-59
2022/09/10 00:48:44;;;;;;;14.20;3.25;;;26.20;99.90;;;;;;5102550;28;20133;-59
2022/09/10 00:51:10;;;;;;;7.50;2.60;;;26.30;99.90;;;;;;5109565;28;20646;-59
2022/09/10 00:53:37;;;;;;;7.82;2.20;;;26.30;99.90;;;;;;5107166;28;20074;-59
2022/09/10 00:56:04;;;;;;;14.10;2.85;;;26.40;99.90;;;;;;5108080;28;20086;-59
2022/09/10 00:58:31;;;;;;;9.25;2.92;;;26.30;99.90;;;;;;5107825;28;20090;-60
2022/09/10 01:01:00;;;;;;;8.77;2.83;;;26.30;99.90;;;;;;5107955;28;20066;-60
2022/09/10 01:03:31;;;;;;;16.10;4.45;;;26.30;99.90;;;;;;5107911;28;20095;-59
2022/09/10 01:05:58;;;;;;;13.90;4.35;;;26.30;99.90;;;;;;5107525;28;20070;-59
2022/09/10 01:08:26;;;;;;;24.73;5.85;;;26.20;99.90;;;;;;5107319;28;20203;-59
2022/09/10 01:11:16;;;;;;;19.05;5.47;;;26.10;99.90;;;;;;5111394;27;20557;-59
2022/09/10 01:14:08;;;;;;;17.00;4.82;;;26.10;99.90;;;;;;5108967;27;20160;-60
2022/09/10 01:16:41;;;;;;;19.33;5.25;;;26.20;99.90;;;;;;5107826;28;20125;-62
2022/09/10 01:19:26;;;;;;;12.52;4.20;;;26.20;99.90;;;;;;5107117;28;20089;-59
2022/09/10 01:22:10;;;;;;;21.55;5.30;;;26.20;99.90;;;;;;5109562;28;20596;-59
2022/09/10 01:24:59;;;;;;;19.40;5.95;;;26.20;99.90;;;;;;5108091;28;20065;-60
2022/09/10 01:27:43;;;;;;;20.15;6.07;;;26.30;99.90;;;;;;5108626;28;20096;-59
2022/09/10 01:30:30;;;;;;;18.35;5.20;;;26.30;99.90;;;;;;5106541;28;20431;-60
2022/09/10 01:33:22;;;;;;;23.45;5.65;;;26.30;99.90;;;;;;5092031;28;20085;-60
2022/09/10 01:35:57;;;;;;;17.77;5.88;;;26.30;99.90;;;;;;5106894;28;20090;-59
2022/09/10 01:38:37;;;;;;;24.00;6.22;;;26.30;99.90;;;;;;5106819;28;20563;-61
2022/09/10 01:41:04;;;;;;;28.52;6.75;;;26.30;99.90;;;;;;5096139;28;20070;-59
2022/09/10 01:43:30;;;;;;;20.88;6.07;;;26.30;99.90;;;;;;5109180;28;20154;-60
2022/09/10 01:46:07;;;;;;;20.50;5.72;;;26.20;99.90;;;;;;5106729;28;20066;-60
2022/09/10 01:49:17;;;;;;;15.23;5.13;;;26.20;99.90;;;;;;5105203;28;20118;-61
2022/09/10 01:51:50;;;;;;;23.27;4.65;;;26.30;99.90;;;;;;5104927;28;20513;-62
2022/09/10 01:54:44;;;;;;;17.52;3.97;;;26.20;99.90;;;;;;5106376;28;20101;-62
2022/09/10 01:57:13;;;;;;;19.30;4.68;;;26.20;99.90;;;;;;5108488;28;20074;-62
2022/09/10 02:00:02;;;;;;;14.50;4.10;;;26.20;99.90;;;;;;5108448;28;20105;-62
2022/09/10 02:02:36;;;;;;;15.65;4.50;;;26.20;99.90;;;;;;5111539;27;20068;-61
2022/09/10 02:05:05;;;;;;;15.57;4.35;;;26.20;99.90;;;;;;5111718;28;20192;-63
2022/09/10 02:07:34;;;;;;;19.63;5.88;;;26.20;99.90;;;;;;5111732;28;20079;-63
2022/09/10 02:10:05;;;;;;;20.70;4.70;;;26.20;99.90;;;;;;5111673;28;20525;-64
2022/09/10 02:12:32;;;;;;;16.20;5.55;;;26.10;99.90;;;;;;5112374;28;20143;-65
2022/09/10 02:14:59;;;;;;;16.88;4.75;;;26.10;99.90;;;;;;5110845;28;20164;-66
2022/09/10 02:17:33;;;;;;;24.15;6.75;;;26.10;99.90;;;;;;5112549;27;20085;-63
2022/09/10 02:20:03;;;;;;;18.95;6.38;;;26.10;99.90;;;;;;5110810;28;20071;-64
2022/09/10 02:22:35;;;;;;;21.83;6.13;;;26.10;99.90;;;;;;5094140;28;20131;-66
2022/09/10 02:25:04;;;;;;;19.92;6.55;;;26.10;99.90;;;;;;5110390;28;20067;-64
2022/09/10 02:27:31;;;;;;;19.00;5.95;;;26.10;99.90;;;;;;5110383;28;20092;-64
2022/09/10 02:29:58;;;;;;;22.85;6.00;;;26.00;99.90;;;;;;5112102;28;20070;-65
2022/09/10 02:32:24;;;;;;;27.75;6.55;;;26.00;99.90;;;;;;5110386;28;20464;-65
2022/09/10 02:34:50;;;;;;;21.88;7.18;;;26.00;99.90;;;;;;5110086;28;20478;-65
2022/09/10 02:37:18;;;;;;;23.42;5.75;;;26.00;99.90;;;;;;5110386;28;20092;-64
2022/09/10 02:39:45;;;;;;;23.88;6.85;;;26.00;99.90;;;;;;5094487;28;20172;-64
2022/09/10 02:42:15;;;;;;;19.02;6.05;;;26.00;99.90;;;;;;5090647;28;20090;-64
2022/09/10 02:44:42;;;;;;;24.23;6.90;;;26.00;99.90;;;;;;5109786;28;20214;-64
2022/09/10 02:47:08;;;;;;;21.95;5.78;;;26.00;99.90;;;;;;5109996;27;20470;-63
2022/09/10 02:49:34;;;;;;;18.92;5.40;;;26.00;99.90;;;;;;5107334;28;20103;-64
2022/09/10 02:52:01;;;;;;;17.10;4.82;;;26.00;99.90;;;;;;5109322;28;20066;-64
2022/09/10 02:54:28;;;;;;;17.13;4.15;;;25.90;99.90;;;;;;5110330;28;20077;-65
2022/09/10 02:56:55;;;;;;;26.80;4.60;;;26.00;99.90;;;;;;5110388;28;20069;-63
2022/09/10 02:59:23;;;;;;;18.63;4.15;;;25.90;99.90;;;;;;5092985;28;20097;-63
2022/09/10 03:01:49;;;;;;;19.52;4.18;;;25.90;99.90;;;;;;5122069;27;20071;-63
2022/09/10 03:04:16;;;;;;;18.63;3.90;;;25.90;99.90;;;;;;5106951;27;20066;-63
2022/09/10 03:06:42;;;;;;;14.13;3.67;;;25.90;99.90;;;;;;5109163;28;20093;-63
2022/09/10 03:09:10;;;;;;;13.65;4.07;;;25.90;99.90;;;;;;5109972;28;20161;-64
2022/09/10 03:11:39;;;;;;;21.40;5.55;;;25.80;99.90;;;;;;5093072;28;20075;-63
2022/09/10 03:14:08;;;;;;;22.38;5.50;;;25.80;99.90;;;;;;5110090;28;20079;-63
2022/09/10 03:16:35;;;;;;;16.35;4.60;;;25.80;99.90;;;;;;5110002;28;20475;-63
2022/09/10 03:19:01;;;;;;;18.27;4.00;;;25.70;99.90;;;;;;5110983;27;20594;-64
2022/09/10 03:21:28;;;;;;;25.17;4.93;;;25.70;99.90;;;;;;5109816;28;20078;-64
2022/09/10 03:23:55;;;;;;;18.63;4.47;;;25.70;99.90;;;;;;5109094;28;20995;-64
2022/09/10 03:26:24;;;;;;;18.15;4.93;;;25.70;99.90;;;;;;5109882;28;20068;-63
2022/09/10 03:28:50;;;;;;;18.08;4.63;;;25.70;99.90;;;;;;5111068;28;20398;-64
2022/09/10 03:31:17;;;;;;;23.48;4.75;;;25.70;99.90;;;;;;5108714;28;20074;-63
2022/09/10 03:33:44;;;;;;;22.80;5.18;;;25.80;99.90;;;;;;5092602;28;20080;-64
2022/09/10 03:36:13;;;;;;;19.88;4.47;;;25.70;99.90;;;;;;5110257;28;20070;-64
2022/09/10 03:38:40;;;;;;;23.02;4.63;;;25.70;99.90;;;;;;5093169;28;20105;-65
2022/09/10 03:41:07;;;;;;;20.55;5.70;;;25.70;99.90;;;;;;5109486;28;20071;-65
2022/09/10 03:43:33;;;;;;;19.00;4.03;;;25.70;99.90;;;;;;5109284;28;20530;-64
2022/09/10 03:46:01;;;;;;;18.05;3.75;;;25.70;99.90;;;;;;5108723;28;20612;-63
2022/09/10 03:48:28;;;;;;;20.77;4.32;;;25.70;99.90;;;;;;5108520;28;20590;-64
2022/09/10 03:50:55;;;;;;;21.70;4.22;;;25.60;99.90;;;;;;5122840;27;20082;-63
2022/09/10 03:53:22;;;;;;;27.23;4.40;;;25.60;99.90;;;;;;5108839;28;20067;-64
2022/09/10 03:55:49;;;;;;;17.67;4.35;;;25.70;99.90;;;;;;5109358;28;20079;-64
2022/09/10 03:58:17;;;;;;;16.27;4.35;;;25.70;99.90;;;;;;5108882;28;20092;-64
2022/09/10 04:00:44;;;;;;;22.83;4.25;;;25.70;99.90;;;;;;5108786;28;20156;-64
2022/09/10 04:03:11;;;;;;;23.33;4.60;;;25.80;99.90;;;;;;5109515;28;20081;-65
2022/09/10 04:05:45;;;;;;;18.58;4.38;;;25.70;99.90;;;;;;5108967;28;20071;-64
2022/09/10 04:08:12;;;;;;;29.10;4.63;;;25.70;99.90;;;;;;5108948;28;20069;-64
2022/09/10 04:10:40;;;;;;;21.92;4.30;;;25.70;99.90;;;;;;5108396;28;20124;-65
2022/09/10 04:13:06;;;;;;;25.30;4.50;;;25.60;99.90;;;;;;5108546;28;20074;-63
2022/09/10 04:15:33;;;;;;;26.15;4.53;;;25.60;99.90;;;;;;5109818;28;20707;-64
2022/09/10 04:17:59;;;;;;;25.80;4.30;;;25.60;99.90;;;;;;5109869;28;20079;-64
2022/09/10 04:20:26;;;;;;;23.15;3.95;;;25.60;99.90;;;;;;5108744;28;20523;-64
2022/09/10 04:22:53;;;;;;;23.48;4.28;;;25.70;99.90;;;;;;5108602;28;20582;-64
2022/09/10 04:25:20;;;;;;;33.55;5.15;;;25.60;99.90;;;;;;5108610;28;20499;-64
2022/09/10 04:27:48;;;;;;;23.90;4.40;;;25.70;99.90;;;;;;5108414;28;20517;-64
2022/09/10 04:30:16;;;;;;;29.70;4.28;;;25.70;99.90;;;;;;5108042;28;20590;-63
2022/09/10 04:32:43;;;;;;;17.88;4.00;;;25.60;99.90;;;;;;5109578;28;20140;-64
2022/09/10 04:35:10;;;;;;;24.58;4.60;;;25.70;99.90;;;;;;5108441;28;20101;-66
2022/09/10 04:37:36;;;;;;;27.73;4.28;;;25.60;99.90;;;;;;5107049;28;20108;-64
2022/09/10 04:40:04;;;;;;;19.10;4.80;;;25.60;99.90;;;;;;5108261;28;20513;-64
2022/09/10 04:42:31;;;;;;;28.73;4.07;;;25.60;99.90;;;;;;5108186;28;20066;-63
2022/09/10 04:44:58;;;;;;;27.48;5.22;;;25.60;99.90;;;;;;5109175;28;20069;-63
2022/09/10 04:47:24;;;;;;;22.10;4.25;;;25.60;99.90;;;;;;5107783;28;20069;-64
2022/09/10 04:49:50;;;;;;;19.15;4.82;;;25.60;99.90;;;;;;5108255;27;20086;-64
2022/09/10 04:52:19;;;;;;;21.20;5.50;;;25.50;99.90;;;;;;5105072;28;20070;-63
2022/09/10 04:54:45;;;;;;;25.33;4.82;;;25.60;99.90;;;;;;5107141;28;20495;-64
2022/09/10 04:57:11;;;;;;;20.67;4.43;;;25.50;99.90;;;;;;5108592;22;20123;-63
2022/09/10 04:59:38;;;;;;;21.83;4.45;;;25.60;99.90;;;;;;5046893;28;20075;-64
2022/09/10 05:02:05;;;;;;;27.13;4.85;;;25.50;99.90;;;;;;5045201;28;20158;-64
2022/09/10 05:04:32;;;;;;;22.63;5.18;;;25.60;99.90;;;;;;5047258;28;20075;-63
2022/09/10 05:06:58;;;;;;;25.73;7.63;;;25.60;99.90;;;;;;5047779;28;20126;-65
2022/09/10 05:09:26;;;;;;;18.30;5.88;;;25.60;99.90;;;;;;5046691;28;20116;-63
2022/09/10 05:11:52;;;;;;;23.08;7.05;;;25.60;99.90;;;;;;5047575;28;20072;-64
2022/09/10 05:14:18;;;;;;;22.27;6.95;;;25.60;99.90;;;;;;5046425;28;20494;-63
2022/09/10 05:16:45;;;;;;;21.38;7.03;;;25.60;99.90;;;;;;5047538;28;20479;-64
2022/09/10 05:19:16;;;;;;;25.52;7.68;;;25.60;99.90;;;;;;5047022;28;20546;-64
2022/09/10 05:21:47;;;;;;;22.98;7.70;;;25.60;99.90;;;;;;5046583;28;20079;-65
2022/09/10 05:24:14;;;;;;;26.15;6.32;;;25.60;99.90;;;;;;5048382;28;20140;-64
2022/09/10 05:26:42;;;;;;;20.05;5.65;;;25.60;99.90;;;;;;5063814;28;20070;-63
2022/09/10 05:29:10;;;;;;;25.30;5.78;;;25.60;99.90;;;;;;5047024;28;20162;-64
2022/09/10 05:31:36;;;;;;;19.75;5.20;;;25.60;99.90;;;;;;5044407;28;20075;-66
2022/09/10 05:34:03;;;;;;;22.17;5.18;;;25.70;99.90;;;;;;5045247;28;20083;-64
2022/09/10 05:36:30;;;;;;;19.10;4.88;;;25.70;99.90;;;;;;5045073;28;20166;-64
2022/09/10 05:39:02;;;;;;;21.98;5.55;;;25.70;99.90;;;;;;5054428;28;20182;-64
2022/09/10 05:41:29;;;;;;;26.95;6.60;;;25.70;99.90;;;;;;5051920;28;20097;-64
2022/09/10 05:43:56;;;;;;;23.77;5.45;;;25.70;99.90;;;;;;5050628;28;20082;-64
2022/09/10 05:46:23;;;;;;;20.42;5.25;;;25.60;99.90;;;;;;5051158;28;20094;-63
2022/09/10 05:48:52;;;;;;;19.23;4.95;;;25.60;99.90;;;;;;5064754;28;20074;-64
2022/09/10 05:51:19;;;;;;;22.73;5.07;;;25.60;99.90;;;;;;5054729;28;20071;-64
2022/09/10 05:53:45;;;;;;;22.10;5.28;;;25.60;99.90;;;;;;5052846;28;20083;-63
2022/09/10 05:56:12;;;;;;;24.60;5.20;;;25.60;99.90;;;;;;5064568;28;20071;-64
2022/09/10 05:58:38;;;;;;;26.73;5.28;;;25.60;99.90;;;;;;5066358;28;20103;-65
2022/09/10 06:01:05;;;;;;;35.30;6.03;;;25.60;99.90;;;;;;5065701;28;20076;-64
2022/09/10 06:03:32;;;;;;;22.63;5.38;;;25.60;99.90;;;;;;5059517;28;20089;-64
2022/09/10 06:05:58;;;;;;;20.73;4.68;;;25.70;99.90;;;;;;5057374;28;20074;-64
2022/09/10 06:08:24;;;;;;;23.17;5.78;;;25.70;99.90;;;;;;5049828;28;20075;-62
2022/09/10 06:10:56;;;;;;;22.27;5.65;;;25.70;99.90;;;;;;5052514;28;20079;-62
2022/09/10 06:13:23;;;;;;;23.45;5.03;;;25.70;99.90;;;;;;5050328;28;20091;-63
2022/09/10 06:15:50;;;;;;;21.70;5.20;;;25.70;99.90;;;;;;5052953;28;20316;-63
2022/09/10 06:18:17;;;;;;;26.90;5.50;;;25.70;99.90;;;;;;5064591;28;20201;-64
2022/09/10 06:20:44;;;;;;;20.75;5.43;;;25.70;99.90;;;;;;5055028;28;20156;-64
2022/09/10 06:23:10;;;;;;;27.35;5.28;;;25.60;99.90;;;;;;5050189;28;20094;-64
2022/09/10 06:25:37;;;;;;;24.92;4.88;;;25.70;99.90;;;;;;5051370;28;20079;-65
2022/09/10 06:28:03;;;;;;;20.33;5.25;;;25.60;99.90;;;;;;5066300;28;20166;-65
2022/09/10 06:30:30;;;;;;;26.98;5.88;;;25.70;99.90;;;;;;5050269;28;20096;-63
2022/09/10 06:32:56;;;;;;;18.40;5.10;;;25.70;99.90;;;;;;5053692;28;20073;-63
2022/09/10 06:35:24;;;;;;;28.77;5.22;;;25.70;99.90;;;;;;5065626;28;20078;-63
2022/09/10 06:37:50;;;;;;;21.88;5.45;;;25.70;99.90;;;;;;5050409;28;20098;-64
2022/09/10 06:40:17;;;;;;;23.33;5.00;;;25.70;99.90;;;;;;5062864;28;20067;-63
2022/09/10 06:42:43;;;;;;;23.73;4.25;;;25.70;99.90;;;;;;5052315;28;20075;-63
2022/09/10 06:45:10;;;;;;;24.45;5.00;;;25.70;99.90;;;;;;5051276;28;20170;-65
2022/09/10 06:47:36;;;;;;;21.55;5.50;;;25.70;99.90;;;;;;5068602;28;20098;-64
2022/09/10 06:50:03;;;;;;;26.80;6.18;;;25.70;99.90;;;;;;5056744;28;20524;-63
2022/09/10 06:52:29;;;;;;;22.35;5.47;;;25.70;99.90;;;;;;5053244;28;20067;-64
2022/09/10 06:54:56;;;;;;;18.88;5.07;;;25.70;99.90;;;;;;5062058;28;20097;-65
2022/09/10 06:57:26;;;;;;;22.63;5.10;;;25.70;99.90;;;;;;5055939;28;20116;-65
2022/09/10 06:59:52;;;;;;;24.42;4.82;;;25.70;99.90;;;;;;5055027;28;20072;-64
2022/09/10 07:02:18;;;;;;;22.60;4.68;;;25.70;99.90;;;;;;5067915;28;20110;-64
2022/09/10 07:04:45;;;;;;;18.00;4.45;;;25.70;99.90;;;;;;5061357;28;20063;-66
2022/09/10 07:07:12;;;;;;;19.65;4.68;;;25.80;99.90;;;;;;5065166;28;20069;-66
2022/09/10 07:09:38;;;;;;;20.92;4.68;;;25.70;99.90;;;;;;5055750;28;20121;-64
2022/09/10 07:12:05;;;;;;;19.60;4.82;;;25.70;99.90;;;;;;5067803;28;20071;-64
2022/09/10 07:14:32;;;;;;;26.33;5.63;;;25.80;99.90;;;;;;5055716;28;20084;-62
2022/09/10 07:16:58;;;;;;;22.35;4.60;;;25.80;99.90;;;;;;5067097;28;20074;-64
2022/09/10 07:19:24;;;;;;;20.80;5.15;;;25.80;99.90;;;;;;5068228;28;20083;-64
2022/09/10 07:21:51;;;;;;;21.50;5.38;;;25.70;99.90;;;;;;5068356;28;20516;-63
2022/09/10 07:24:18;;;;;;;24.27;5.90;;;25.80;99.90;;;;;;5060680;28;20067;-64
2022/09/10 07:26:45;;;;;;;18.13;5.40;;;25.70;99.90;;;;;;5055783;28;20077;-63
2022/09/10 07:29:12;;;;;;;16.90;5.15;;;25.70;99.90;;;;;;5055412;28;20074;-64
2022/09/10 07:31:40;;;;;;;22.08;5.47;;;25.80;99.90;;;;;;5060869;28;20131;-64
2022/09/10 07:34:07;;;;;;;20.58;5.90;;;25.70;99.90;;;;;;5059864;28;20082;-65
2022/09/10 07:36:34;;;;;;;17.17;4.68;;;25.70;99.90;;;;;;5052290;28;20079;-64
2022/09/10 07:39:00;;;;;;;19.88;4.72;;;25.70;99.90;;;;;;5063543;28;20627;-64
2022/09/10 07:41:28;;;;;;;20.55;5.15;;;25.70;99.90;;;;;;5069147;28;20071;-64
2022/09/10 07:43:55;;;;;;;21.27;4.95;;;25.70;99.90;;;;;;5058232;28;20070;-65
2022/09/10 07:46:24;;;;;;;19.38;4.38;;;25.70;99.90;;;;;;5054235;28;20075;-63
2022/09/10 07:48:56;;;;;;;16.30;4.00;;;25.70;99.90;;;;;;5055447;28;20079;-63
2022/09/10 07:51:23;;;;;;;25.23;4.82;;;25.70;99.90;;;;;;5060649;28;20577;-63
2022/09/10 07:53:55;;;;;;;28.55;7.07;;;25.70;99.90;;;;;;5060238;28;20083;-66
2022/09/10 07:56:22;;;;;;;23.55;5.20;;;25.80;99.90;;;;;;5055275;28;20084;-64
2022/09/10 07:58:50;;;;;;;25.95;5.55;;;25.70;99.90;;;;;;5052753;28;20460;-65
2022/09/10 08:01:18;;;;;;;18.50;4.50;;;25.60;99.90;;;;;;5066385;28;20545;-64
2022/09/10 08:03:45;;;;;;;18.75;4.93;;;25.60;99.90;;;;;;5055013;28;20098;-64
2022/09/10 08:06:11;;;;;;;27.65;5.05;;;25.70;99.90;;;;;;5053425;28;20551;-64
2022/09/10 08:08:39;;;;;;;22.30;5.45;;;25.70;99.90;;;;;;5058383;28;20113;-63
2022/09/10 08:11:10;;;;;;;16.70;4.50;;;25.70;99.90;;;;;;5056042;28;20078;-63
2022/09/10 08:13:40;;;;;;;17.77;4.13;;;25.70;99.90;;;;;;5054349;28;20132;-64
2022/09/10 08:16:11;;;;;;;18.90;4.28;;;25.70;99.90;;;;;;5052152;28;20066;-64
2022/09/10 08:18:38;;;;;;;22.20;4.32;;;25.70;99.90;;;;;;5053780;28;20101;-64
2022/09/10 08:21:09;;;;;;;16.02;4.28;;;25.70;99.90;;;;;;5065177;28;20066;-64
2022/09/10 08:23:38;;;;;;;21.55;4.45;;;25.70;99.90;;;;;;5052502;28;20063;-64
2022/09/10 08:26:07;;;;;;;24.38;4.85;;;25.70;99.90;;;;;;5053647;28;20079;-64
2022/09/10 08:28:34;;;;;;;18.92;4.32;;;25.60;99.90;;;;;;5055813;28;20071;-64
2022/09/10 08:31:10;;;;;;;20.50;4.63;;;25.70;99.90;;;;;;5065627;28;20090;-64
2022/09/10 08:33:38;;;;;;;18.88;4.38;;;25.70;99.90;;;;;;5058794;28;20081;-64
2022/09/10 08:36:07;;;;;;;23.33;4.63;;;25.60;99.90;;;;;;5053962;28;20103;-65
2022/09/10 08:38:38;;;;;;;19.40;4.80;;;25.60;99.90;;;;;;5053394;28;20305;-65
2022/09/10 08:41:20;;;;;;;22.60;4.43;;;25.60;99.90;;;;;;5053417;28;20083;-64
2022/09/10 08:44:02;;;;;;;26.88;4.72;;;25.70;99.90;;;;;;5060742;28;20067;-65
2022/09/10 08:47:08;;;;;;;18.20;5.05;;;25.60;99.90;;;;;;5067420;28;20099;-65
2022/09/10 08:49:38;;;;;;;23.90;4.53;;;25.70;99.90;;;;;;5064567;28;20075;-65
2022/09/10 08:52:20;;;;;;;19.65;4.13;;;25.70;99.90;;;;;;5056302;28;20083;-65
2022/09/10 08:55:12;;;;;;;24.02;5.10;;;25.70;99.90;;;;;;5056242;28;20066;-67
2022/09/10 08:57:46;;;;;;;22.17;5.43;;;25.70;99.90;;;;;;5080305;28;20204;-65
2022/09/10 09:00:26;;;;;;;23.85;4.68;;;25.70;99.90;;;;;;5052526;28;20084;-63
2022/09/10 09:03:11;;;;;;;25.60;5.43;;;25.70;99.90;;;;;;5062585;28;20458;-63
2022/09/10 09:05:44;;;;;;;16.17;4.22;;;25.70;99.90;;;;;;5049472;28;20072;-64
2022/09/10 09:08:18;;;;;;;18.60;4.68;;;25.70;99.90;;;;;;5044369;28;20186;-64
2022/09/10 09:11:10;;;;;;;20.38;4.13;;;25.70;99.90;;;;;;5052137;28;20075;-64
2022/09/10 09:13:37;;;;;;;20.80;4.47;;;25.70;99.90;;;;;;5076871;28;20545;-64
2022/09/10 09:16:29;;;;;;;16.75;4.30;;;25.70;99.90;;;;;;5050926;28;20077;-64
2022/09/10 09:19:17;;;;;;;15.88;3.83;;;25.70;99.90;;;;;;5049776;28;20098;-65
2022/09/10 09:21:52;;;;;;;17.98;4.47;;;25.80;99.90;;;;;;5064009;28;20074;-65
2022/09/10 09:24:23;;;;;;;17.13;4.88;;;25.70;99.90;;;;;;5054862;28;20067;-64
2022/09/10 09:26:53;;;;;;;22.00;5.22;;;25.70;99.90;;;;;;5057310;28;20067;-64
2022/09/10 09:29:44;;;;;;;17.58;4.28;;;25.70;99.90;;;;;;5054932;28;20075;-65
2022/09/10 09:32:15;;;;;;;20.13;4.50;;;25.70;99.90;;;;;;5052099;28;20108;-65
2022/09/10 09:34:53;;;;;;;20.98;4.97;;;25.70;99.90;;;;;;5055614;28;20070;-64
2022/09/10 09:37:23;;;;;;;19.45;4.30;;;25.70;99.90;;;;;;5051486;28;20095;-65
2022/09/10 09:40:02;;;;;;;19.48;4.75;;;25.70;99.90;;;;;;5050152;28;20123;-65
2022/09/10 09:42:55;;;;;;;22.38;4.70;;;25.70;99.90;;;;;;5053998;28;20066;-65
2022/09/10 09:45:44;;;;;;;20.95;4.72;;;25.70;99.90;;;;;;5047362;28;20195;-65
2022/09/10 09:48:16;;;;;;;27.65;4.68;;;25.70;99.90;;;;;;5039805;28;20554;-65
2022/09/10 09:50:49;;;;;;;20.48;4.95;;;25.70;99.90;;;;;;5067007;28;20082;-66
2022/09/10 09:53:26;;;;;;;16.92;4.47;;;25.70;99.90;;;;;;5056570;28;20102;-65
2022/09/10 09:55:57;;;;;;;17.80;4.63;;;25.70;99.90;;;;;;5052816;28;20087;-66
2022/09/10 09:58:25;;;;;;;17.70;4.20;;;25.70;99.90;;;;;;5054206;28;20107;-66
2022/09/10 10:01:03;;;;;;;20.73;5.07;;;25.80;99.90;;;;;;5049865;28;20072;-66
2022/09/10 10:03:32;;;;;;;17.95;4.60;;;25.70;99.90;;;;;;5051597;28;20158;-65
2022/09/10 10:06:07;;;;;;;17.98;4.70;;;25.60;99.90;;;;;;5053097;28;20064;-66
2022/09/10 10:08:34;;;;;;;15.57;4.07;;;25.60;99.90;;;;;;5051897;28;20195;-66
2022/09/10 10:11:00;;;;;;;21.73;4.97;;;25.60;99.90;;;;;;5052775;28;20438;-65
2022/09/10 10:13:37;;;;;;;16.05;4.38;;;25.60;99.90;;;;;;5057327;28;20069;-65
2022/09/10 10:16:22;;;;;;;;;;;25.70;99.90;;;;;;5041272;28;20187;-67
2022/09/10 10:18:50;;;;;;;18.35;4.03;;;25.70;99.90;;;;;;5065163;28;19976;-65
2022/09/10 10:21:31;;;;;;;13.88;3.72;;;25.60;99.90;;;;;;5053825;28;20067;-65
2022/09/10 10:23:58;;;;;;;17.40;4.15;;;25.70;99.90;;;;;;5066120;28;20082;-65
2022/09/10 10:26:33;;;;;;;19.42;4.35;;;25.60;99.90;;;;;;5053343;28;20112;-67
2022/09/10 10:29:06;;;;;;;17.52;4.45;;;25.60;99.90;;;;;;5039119;28;20077;-65
2022/09/10 10:31:44;;;;;;;15.85;3.58;;;25.60;99.90;;;;;;5054836;28;20124;-66
2022/09/10 10:34:32;;;;;;;12.70;4.00;;;25.60;99.90;;;;;;5053429;28;20175;-66
2022/09/10 10:37:34;;;;;;;21.13;4.22;;;25.60;99.90;;;;;;5086523;28;20089;-65
2022/09/10 10:40:23;;;;;;;15.00;3.83;;;25.60;99.90;;;;;;5055487;28;20125;-65
2022/09/10 10:43:00;;;;;;;19.15;4.13;;;25.60;99.90;;;;;;5058476;28;20067;-65
2022/09/10 10:45:34;;;;;;;;;;;25.60;99.90;;;;;;5055454;28;20086;-65
2022/09/10 10:48:18;;;;;;;11.35;3.10;;;25.60;99.90;;;;;;5052538;28;20007;-65
2022/09/10 10:51:10;;;;;;;15.95;3.85;;;25.70;99.90;;;;;;5056928;28;20079;-65
2022/09/10 10:53:40;;;;;;;17.02;3.72;;;25.70;99.90;;;;;;5057239;28;20088;-65
2022/09/10 10:56:39;;;;;;;18.15;4.50;;;25.60;99.90;;;;;;5053994;28;20134;-65
2022/09/10 10:59:28;;;;;;;18.92;4.28;;;25.60;99.90;;;;;;5055572;28;20111;-65
2022/09/10 11:02:32;;;;;;;16.58;4.22;;;25.60;99.90;;;;;;5052332;28;20106;-65
2022/09/10 11:05:06;;;;;;;19.35;4.35;;;25.70;99.90;;;;;;5055835;28;20109;-66
2022/09/10 11:07:42;;;;;;;15.45;4.40;;;25.70;99.90;;;;;;5053745;28;20599;-66
2022/09/10 11:10:25;;;;;;;14.15;3.33;;;25.60;99.90;;;;;;5068934;28;20113;-65
2022/09/10 11:13:12;;;;;;;15.13;3.92;;;25.60;99.90;;;;;;5058965;28;20802;-66
2022/09/10 11:15:45;;;;;;;13.82;4.18;;;25.70;99.90;;;;;;5069885;28;20066;-66
2022/09/10 11:18:32;;;;;;;17.85;3.72;;;25.70;99.90;;;;;;5060464;28;20123;-66
2022/09/10 11:21:28;;;;;;;16.40;3.80;;;25.70;99.90;;;;;;5053845;28;20423;-67
2022/09/10 11:24:14;;;;;;;16.55;3.65;;;25.60;99.90;;;;;;5058683;28;20442;-65
2022/09/10 11:26:54;;;;;;;14.00;3.38;;;25.70;99.90;;;;;;5058358;28;20427;-66
2022/09/10 11:29:29;;;;;;;13.30;3.72;;;25.70;99.90;;;;;;5061495;28;20096;-67
2022/09/10 11:32:17;;;;;;;12.05;3.53;;;25.60;99.90;;;;;;5056143;28;20073;-66
2022/09/10 11:35:16;;;;;;;13.18;3.42;;;25.70;99.90;;;;;;5056669;28;20099;-66
2022/09/10 11:38:02;;;;;;;16.15;4.15;;;25.80;99.90;;;;;;5036670;28;20075;-66
2022/09/10 11:40:45;;;;;;;10.35;3.58;;;25.80;99.90;;;;;;5062185;28;20079;-66
2022/09/10 11:43:18;;;;;;;14.32;3.85;;;25.70;99.90;;;;;;5057745;28;20499;-66
2022/09/10 11:45:56;;;;;;;11.52;3.53;;;25.80;99.90;;;;;;5052345;28;20072;-65
2022/09/10 11:48:33;;;;;;;13.27;3.95;;;25.80;99.90;;;;;;5063605;28;20616;-65
2022/09/10 11:51:23;;;;;;;16.42;3.75;;;25.70;99.90;;;;;;5046159;28;20172;-68
2022/09/10 11:53:50;;;;;;;14.52;3.97;;;25.80;99.90;;;;;;5068085;28;20576;-65
2022/09/10 11:56:48;;;;;;;14.70;4.22;;;25.80;99.90;;;;;;5050393;28;20163;-66
2022/09/10 11:59:33;;;;;;;11.68;3.45;;;25.80;99.90;;;;;;5033651;28;20099;-65
2022/09/10 12:02:21;;;;;;;8.98;3.38;;;25.80;99.90;;;;;;5084415;28;20549;-66
2022/09/10 12:05:33;;;;;;;10.38;3.35;;;25.80;99.90;;;;;;5052930;28;20079;-67
2022/09/10 12:08:40;;;;;;;11.57;3.85;;;25.70;99.90;;;;;;5053502;28;20071;-65
2022/09/10 12:11:31;;;;;;;15.90;3.80;;;25.70;99.90;;;;;;5051857;28;20067;-65
2022/09/10 12:13:59;;;;;;;9.95;3.42;;;25.70;99.90;;;;;;5055783;28;20076;-65
2022/09/10 12:16:37;;;;;;;9.98;3.80;;;25.60;99.90;;;;;;5055540;28;20126;-66
2022/09/10 12:19:53;;;;;;;13.75;4.03;;;25.70;99.90;;;;;;5060088;28;20133;-64
2022/09/10 12:22:39;;;;;;;12.82;4.63;;;25.80;99.90;;;;;;5013457;28;20096;-64
2022/09/10 12:25:07;;;;;;;12.60;4.07;;;25.80;99.90;;;;;;5016745;28;20616;-65
2022/09/10 12:27:55;;;;;;;19.60;4.60;;;25.80;99.90;;;;;;5008990;28;20135;-66
2022/09/10 12:30:32;;;;;;;15.18;4.95;;;25.80;99.90;;;;;;5003234;28;20081;-65
2022/09/10 12:32:59;;;;;;;;;;;25.80;99.90;;;;;;5026598;28;20087;-65
2022/09/10 12:35:35;;;;;;;21.88;4.78;;;25.80;99.90;;;;;;5012594;28;20006;-65
2022/09/10 12:38:41;;;;;;;18.77;5.65;;;25.70;99.90;;;;;;5012330;28;20130;-65
2022/09/10 12:41:15;;;;;;;14.75;5.40;;;25.70;99.90;;;;;;5017491;28;20154;-65
2022/09/10 12:43:42;;;;;;;12.80;5.32;;;25.70;99.90;;;;;;5018014;28;20420;-65
2022/09/10 12:46:08;;;;;;;13.88;5.05;;;25.70;99.90;;;;;;5013654;28;20080;-63
2022/09/10 12:48:46;;;;;;;13.30;5.82;;;25.60;99.90;;;;;;5012563;28;20098;-65
2022/09/10 12:51:35;;;;;;;15.43;6.38;;;25.60;99.90;;;;;;5014192;28;20111;-65
2022/09/10 12:54:04;;;;;;;19.45;5.70;;;25.60;99.90;;;;;;4993694;28;20075;-65
2022/09/10 12:57:08;;;;;;;24.42;6.97;;;25.60;99.90;;;;;;5014373;28;20084;-65
2022/09/10 12:59:50;;;;;;;22.85;6.65;;;25.50;99.90;;;;;;5037510;28;20088;-65
2022/09/10 13:02:32;;;;;;;16.38;6.07;;;25.30;99.90;;;;;;5080365;28;20071;-67
2022/09/10 13:05:32;;;;;;;21.65;7.40;;;25.40;99.90;;;;;;5039388;28;20133;-65
2022/09/10 13:08:30;;;;;;;22.05;7.40;;;25.50;99.90;;;;;;5038868;28;20165;-67